createdAt,value
2019-01-24T00:01:57.188Z,78.93
2019-01-24T00:04:26.449Z,82.30
2019-01-24T00:06:55.646Z,74.90
2019-01-24T00:09:24.845Z,73.40
2019-01-24T00:11:55.411Z,72.87
2019-01-24T00:14:25.371Z,82.13
2019-01-24T00:16:54.653Z,72.27
2019-01-24T00:19:23.975Z,76.10
2019-01-24T00:21:56.035Z,75.97
2019-01-24T00:24:25.225Z,76.33
2019-01-24T00:26:54.492Z,78.23
2019-01-24T00:29:23.780Z,76.57
2019-01-24T00:31:53.032Z,76.77
2019-01-24T00:34:23.364Z,83.40
2019-01-24T00:36:52.968Z,95.60
2019-01-24T00:39:22.167Z,77.13
2019-01-24T00:41:51.368Z,83.20
2019-01-24T00:44:21.076Z,85.80
2019-01-24T00:46:50.276Z,79.10
2019-01-24T00:49:19.462Z,79.63
2019-01-24T00:51:48.656Z,81.67
2019-01-24T00:54:17.890Z,84.20
2019-01-24T00:56:47.462Z,79.70
2019-01-24T00:59:16.706Z,79.80
2019-01-24T01:01:45.902Z,83.33
2019-01-24T01:04:15.131Z,84.43
2019-01-24T01:06:44.406Z,84.10
2019-01-24T01:09:13.592Z,81.07
2019-01-24T01:11:42.883Z,82.87
2019-01-24T01:14:12.129Z,84.27
2019-01-24T01:16:41.392Z,84.47
2019-01-24T01:19:10.596Z,81.13
2019-01-24T01:21:40.432Z,82.57
2019-01-24T01:24:09.630Z,78.97
2019-01-24T01:26:38.850Z,80.37
2019-01-24T01:29:08.117Z,79.40
2019-01-24T01:31:37.483Z,74.40
2019-01-24T01:34:06.686Z,83.50
2019-01-24T01:36:35.976Z,79.80
2019-01-24T01:39:08.447Z,73.77
2019-01-24T01:41:38.040Z,77.20
2019-01-24T01:44:07.288Z,73.90
2019-01-24T01:46:36.484Z,80.40
2019-01-24T01:49:05.688Z,77.60
2019-01-24T01:51:34.880Z,78.43
2019-01-24T01:54:04.080Z,81.13
2019-01-24T01:56:33.368Z,70.50
2019-01-24T01:59:02.553Z,78.77
2019-01-24T02:01:31.751Z,78.03
2019-01-24T02:04:00.943Z,78.60
2019-01-24T02:06:30.129Z,72.30
2019-01-24T02:08:59.456Z,73.63
2019-01-24T02:11:28.656Z,78.47
2019-01-24T02:13:57.852Z,78.53
2019-01-24T02:16:27.073Z,77.93
2019-01-24T02:18:56.254Z,77.27
2019-01-24T02:21:26.064Z,80.57
2019-01-24T02:23:55.453Z,73.53
2019-01-24T02:26:24.653Z,78.73
2019-01-24T02:28:53.836Z,87.20
2019-01-24T02:31:23.085Z,91.07
2019-01-24T02:33:52.514Z,93.13
2019-01-24T02:36:21.685Z,82.80
2019-01-24T02:38:50.886Z,93.23
2019-01-24T02:41:20.148Z,83.57
2019-01-24T02:43:49.312Z,81.73
2019-01-24T02:46:18.508Z,85.07
2019-01-24T02:48:47.710Z,82.80
2019-01-24T02:51:19.448Z,78.17
2019-01-24T02:53:48.616Z,79.17
2019-01-24T02:56:17.839Z,82.20
2019-01-24T02:58:48.485Z,88.83
2019-01-24T03:01:17.721Z,88.03
2019-01-24T03:03:47.142Z,87.60
2019-01-24T03:06:16.680Z,83.37
2019-01-24T03:08:45.854Z,81.20
2019-01-24T03:11:15.077Z,91.53
2019-01-24T03:13:44.281Z,119.60
2019-01-24T03:16:13.555Z,92.03
2019-01-24T03:18:42.742Z,78.20
2019-01-24T03:21:12.179Z,83.37
2019-01-24T03:23:41.543Z,88.57
2019-01-24T03:26:10.758Z,91.77
2019-01-24T03:28:39.990Z,89.33
2019-01-24T03:31:09.176Z,90.40
2019-01-24T03:33:38.661Z,78.07
2019-01-24T03:36:07.852Z,74.27
2019-01-24T03:38:37.086Z,81.33
2019-01-24T03:41:06.559Z,79.27
2019-01-24T03:43:35.760Z,78.13
2019-01-24T03:46:04.964Z,78.73
2019-01-24T03:48:34.184Z,82.80
2019-01-24T03:51:03.359Z,83.27
2019-01-24T03:53:33.019Z,70.70
2019-01-24T03:56:02.217Z,73.73
2019-01-24T03:58:31.897Z,81.07
2019-01-24T04:01:01.109Z,75.00
2019-01-24T04:03:30.334Z,77.47
2019-01-24T04:05:59.703Z,80.03
2019-01-24T04:08:28.902Z,74.10
2019-01-24T04:10:58.261Z,72.07
2019-01-24T04:13:27.495Z,81.50
2019-01-24T04:15:56.735Z,75.43
2019-01-24T04:18:25.973Z,71.17
2019-01-24T04:20:55.260Z,73.17
2019-01-24T04:23:24.540Z,71.33
2019-01-24T04:25:53.760Z,70.20
2019-01-24T04:28:23.223Z,79.73
2019-01-24T04:30:52.479Z,78.17
2019-01-24T04:33:21.675Z,72.73
2019-01-24T04:35:50.936Z,72.90
2019-01-24T04:38:20.207Z,77.13
2019-01-24T04:40:49.409Z,78.17
2019-01-24T04:43:18.681Z,74.60
2019-01-24T04:45:48.131Z,70.67
2019-01-24T04:48:17.344Z,76.80
2019-01-24T04:50:46.600Z,76.53
2019-01-24T04:53:15.800Z,76.00
2019-01-24T04:55:45.116Z,74.97
2019-01-24T04:58:14.373Z,73.67
2019-01-24T05:00:43.564Z,72.67
2019-01-24T05:03:12.759Z,79.10
2019-01-24T05:05:42.024Z,73.47
2019-01-24T05:08:11.353Z,69.33
2019-01-24T05:10:40.663Z,66.63
2019-01-24T05:13:09.903Z,77.63
2019-01-24T05:15:39.096Z,80.67
2019-01-24T05:18:08.571Z,76.00
2019-01-24T05:20:37.781Z,79.20
2019-01-24T05:23:07.006Z,78.77
2019-01-24T05:25:36.193Z,66.53
2019-01-24T05:28:05.502Z,71.30
2019-01-24T05:30:34.928Z,72.53
2019-01-24T05:33:04.435Z,73.17
2019-01-24T05:35:34.916Z,79.90
2019-01-24T05:38:04.467Z,73.50
2019-01-24T05:40:33.668Z,76.80
2019-01-24T05:43:03.293Z,79.43
2019-01-24T05:45:32.678Z,80.27
2019-01-24T05:48:01.856Z,76.57
2019-01-24T05:50:31.160Z,70.90
2019-01-24T05:53:00.422Z,80.83
2019-01-24T05:55:29.756Z,75.80
2019-01-24T05:57:59.020Z,72.17
2019-01-24T06:00:44.871Z,74.13
2019-01-24T06:03:14.076Z,80.10
2019-01-24T06:05:43.683Z,73.33
2019-01-24T06:08:12.952Z,72.13
2019-01-24T06:10:42.747Z,71.63
2019-01-24T06:13:11.981Z,74.10
2019-01-24T06:15:41.216Z,78.17
2019-01-24T06:18:10.484Z,71.53
2019-01-24T06:20:39.668Z,74.67
2019-01-24T06:23:08.986Z,72.13
2019-01-24T06:25:38.434Z,68.90
2019-01-24T06:28:07.741Z,70.60
2019-01-24T06:30:37.005Z,79.00
2019-01-24T06:33:06.217Z,77.13
2019-01-24T06:35:36.308Z,79.27
2019-01-24T06:38:05.759Z,75.30
2019-01-24T06:40:35.059Z,83.33
2019-01-24T06:43:04.269Z,87.47
2019-01-24T06:45:34.621Z,81.77
2019-01-24T06:48:03.845Z,88.87
2019-01-24T06:50:34.574Z,82.73
2019-01-24T06:53:03.777Z,88.03
2019-01-24T06:55:32.980Z,83.77
2019-01-24T06:58:02.176Z,80.80
2019-01-24T07:00:31.456Z,81.83
2019-01-24T07:03:00.657Z,87.00
2019-01-24T07:05:29.873Z,85.00
2019-01-24T07:07:59.069Z,78.77
2019-01-24T07:10:28.353Z,82.47
2019-01-24T07:12:57.541Z,86.10
2019-01-24T07:15:27.015Z,86.63
2019-01-24T07:17:56.302Z,84.03
2019-01-24T07:20:25.525Z,91.40
2019-01-24T07:22:54.707Z,79.93
2019-01-24T07:25:26.045Z,86.23
2019-01-24T07:27:55.427Z,84.97
2019-01-24T07:30:24.705Z,87.10
2019-01-24T07:32:54.595Z,79.23
2019-01-24T07:35:23.951Z,93.83
2019-01-24T07:37:53.156Z,86.80
2019-01-24T07:40:22.459Z,84.07
2019-01-24T07:42:51.997Z,89.27
2019-01-24T07:45:24.395Z,87.37
2019-01-24T07:47:53.655Z,94.20
2019-01-24T07:50:22.876Z,88.97
2019-01-24T07:52:52.054Z,91.73
2019-01-24T07:55:21.393Z,95.60
2019-01-24T07:57:50.616Z,86.40
2019-01-24T08:00:24.840Z,90.00
2019-01-24T08:02:54.032Z,87.53
2019-01-24T08:05:23.832Z,87.93
2019-01-24T08:07:53.024Z,97.40
2019-01-24T08:10:22.456Z,92.97
2019-01-24T08:12:51.632Z,88.73
2019-01-24T08:15:21.292Z,93.70
2019-01-24T08:17:51.207Z,89.80
2019-01-24T08:20:22.488Z,91.30
2019-01-24T08:22:51.738Z,86.23
2019-01-24T08:25:21.054Z,93.67
2019-01-24T08:27:50.545Z,85.80
2019-01-24T08:30:25.232Z,91.10
2019-01-24T08:32:54.403Z,94.27
2019-01-24T08:35:23.619Z,86.37
2019-01-24T08:37:52.884Z,84.87
2019-01-24T08:40:22.389Z,86.17
2019-01-24T08:42:52.080Z,84.47
2019-01-24T08:45:21.484Z,89.20
2019-01-24T08:47:50.977Z,81.00
2019-01-24T08:50:21.718Z,80.80
2019-01-24T08:52:51.080Z,74.10
2019-01-24T08:55:35.272Z,82.07
2019-01-24T08:58:05.888Z,81.27
2019-01-24T09:00:35.128Z,81.90
2019-01-24T09:03:04.907Z,81.40
2019-01-24T09:05:34.138Z,85.83
2019-01-24T09:08:03.542Z,85.47
2019-01-24T09:10:38.033Z,84.33
2019-01-24T09:13:08.182Z,88.17
2019-01-24T09:15:38.195Z,90.37
2019-01-24T09:18:08.354Z,91.10
2019-01-24T09:20:37.572Z,79.20
2019-01-24T09:23:07.522Z,92.20
2019-01-24T09:25:36.724Z,88.03
2019-01-24T09:28:05.940Z,82.00
2019-01-24T09:30:35.122Z,80.13
2019-01-24T09:33:04.307Z,81.90
2019-01-24T09:35:33.577Z,82.73
2019-01-24T09:38:02.775Z,89.33
2019-01-24T09:40:31.976Z,76.03
2019-01-24T09:43:01.233Z,86.07
2019-01-24T09:45:30.840Z,87.33
2019-01-24T09:48:01.574Z,87.67
2019-01-24T09:50:31.353Z,81.63
2019-01-24T09:53:00.574Z,85.80
2019-01-24T09:55:29.782Z,78.33
2019-01-24T09:57:59.194Z,86.70
2019-01-24T10:00:30.684Z,75.47
2019-01-24T10:03:00.249Z,83.43
2019-01-24T10:05:29.518Z,77.53
2019-01-24T10:07:58.817Z,74.77
2019-01-24T10:10:28.458Z,78.23
2019-01-24T10:12:58.580Z,83.53
2019-01-24T10:15:28.201Z,82.87
2019-01-24T10:17:57.412Z,84.93
2019-01-24T10:20:27.485Z,85.07
2019-01-24T10:22:57.153Z,79.93
2019-01-24T10:25:32.629Z,81.63
2019-01-24T10:28:01.849Z,84.43
2019-01-24T10:30:31.081Z,91.20
2019-01-24T10:33:00.606Z,87.43
2019-01-24T10:35:30.158Z,78.23
2019-01-24T10:37:59.336Z,84.47
2019-01-24T10:40:30.687Z,84.13
2019-01-24T10:43:00.006Z,83.57
2019-01-24T10:45:29.212Z,88.30
2019-01-24T10:47:58.624Z,84.83
2019-01-24T10:50:28.059Z,85.93
2019-01-24T10:52:57.257Z,84.93
2019-01-24T10:55:27.665Z,82.90
2019-01-24T10:57:59.019Z,84.83
2019-01-24T11:00:33.231Z,80.47
2019-01-24T11:03:04.231Z,89.20
2019-01-24T11:05:33.997Z,90.60
2019-01-24T11:08:03.462Z,78.47
2019-01-24T11:10:32.743Z,86.27
2019-01-24T11:13:01.947Z,82.20
2019-01-24T11:15:31.189Z,79.67
2019-01-24T11:18:00.387Z,81.87
2019-01-24T11:20:29.657Z,85.57
2019-01-24T11:22:58.853Z,80.83
2019-01-24T11:25:28.995Z,73.03
2019-01-24T11:27:58.268Z,83.03
2019-01-24T11:30:28.667Z,78.77
2019-01-24T11:32:57.903Z,77.20
2019-01-24T11:35:29.571Z,76.70
2019-01-24T11:37:59.156Z,75.37
2019-01-24T11:40:28.431Z,73.20
2019-01-24T11:42:57.615Z,73.07
2019-01-24T11:45:29.619Z,70.90
2019-01-24T11:47:58.815Z,75.70
2019-01-24T11:50:28.079Z,79.10
2019-01-24T11:52:57.243Z,77.20
2019-01-24T11:55:26.528Z,75.87
2019-01-24T11:57:55.742Z,72.23
2019-01-24T12:00:32.773Z,75.53
2019-01-24T12:03:02.412Z,80.00
2019-01-24T12:05:31.627Z,75.27
2019-01-24T12:08:01.032Z,80.20
2019-01-24T12:10:30.237Z,76.50
2019-01-24T12:12:59.444Z,78.90
2019-01-24T12:15:28.947Z,75.47
2019-01-24T12:17:58.135Z,73.60
2019-01-24T12:20:27.427Z,71.00
2019-01-24T12:22:56.875Z,74.00
2019-01-24T12:25:26.047Z,74.70
2019-01-24T12:27:55.317Z,72.57
2019-01-24T12:30:26.763Z,70.20
2019-01-24T12:32:56.268Z,69.13
2019-01-24T12:35:25.564Z,73.70
2019-01-24T12:37:54.755Z,72.53
2019-01-24T12:40:23.928Z,72.00
2019-01-24T12:42:53.126Z,73.37
2019-01-24T12:45:24.837Z,69.50
2019-01-24T12:47:54.673Z,72.83
2019-01-24T12:50:24.683Z,70.67
2019-01-24T12:52:54.085Z,70.37
2019-01-24T12:55:23.280Z,72.83
2019-01-24T12:57:53.949Z,63.30
2019-01-24T13:00:25.172Z,59.87
2019-01-24T13:02:54.399Z,66.10
2019-01-24T13:05:23.773Z,62.97
2019-01-24T13:07:53.110Z,63.17
2019-01-24T13:10:23.906Z,62.90
2019-01-24T13:12:53.097Z,64.07
2019-01-24T13:15:24.397Z,59.47
2019-01-24T13:17:53.604Z,59.47
2019-01-24T13:20:23.520Z,54.37
2019-01-24T13:22:52.730Z,60.50
2019-01-24T13:25:24.281Z,58.17
2019-01-24T13:27:53.513Z,61.03
2019-01-24T13:30:24.614Z,61.13
2019-01-24T13:32:53.925Z,61.60
2019-01-24T13:35:23.176Z,57.03
2019-01-24T13:37:52.560Z,57.90
2019-01-24T13:40:24.014Z,61.43
2019-01-24T13:42:53.289Z,53.53
2019-01-24T13:45:24.664Z,59.43
2019-01-24T13:47:53.921Z,57.53
2019-01-24T13:50:25.049Z,53.80
2019-01-24T13:52:54.656Z,54.23
2019-01-24T13:55:23.989Z,60.43
2019-01-24T13:57:53.161Z,53.37
2019-01-24T14:00:24.870Z,62.97
2019-01-24T14:02:58.185Z,51.33
2019-01-24T14:05:27.397Z,53.70
2019-01-24T14:07:56.637Z,58.00
2019-01-24T14:10:26.041Z,49.47
2019-01-24T14:12:55.268Z,50.73
2019-01-24T14:15:24.821Z,53.27
2019-01-24T14:17:54.229Z,57.50
2019-01-24T14:20:23.682Z,53.53
2019-01-24T14:22:52.993Z,51.30
2019-01-24T14:25:22.457Z,57.70
2019-01-24T14:27:51.855Z,52.23
2019-01-24T14:30:23.225Z,54.73
2019-01-24T14:32:53.013Z,51.83
2019-01-24T14:35:22.270Z,50.53
2019-01-24T14:37:51.595Z,48.73
2019-01-24T14:40:20.942Z,51.83
2019-01-24T14:42:50.231Z,55.80
2019-01-24T14:45:21.679Z,55.10
2019-01-24T14:47:51.315Z,53.97
2019-01-24T14:50:22.334Z,50.90
2019-01-24T14:52:54.663Z,49.47
2019-01-24T14:55:24.134Z,54.60
2019-01-24T14:57:53.332Z,58.60
2019-01-24T15:00:31.199Z,61.50
2019-01-24T15:03:00.525Z,60.80
2019-01-24T15:05:29.799Z,69.57
2019-01-24T15:07:59.892Z,69.40
2019-01-24T15:10:29.608Z,60.67
2019-01-24T15:13:00.063Z,63.10
2019-01-24T15:15:29.355Z,61.57
2019-01-24T15:17:58.733Z,67.40
2019-01-24T15:20:27.934Z,68.60
2019-01-24T15:22:57.127Z,66.97
2019-01-24T15:25:26.688Z,62.10
2019-01-24T15:27:55.900Z,64.93
2019-01-24T15:30:25.414Z,62.23
2019-01-24T15:32:54.679Z,68.60
2019-01-24T15:35:24.007Z,68.77
2019-01-24T15:37:54.640Z,70.83
2019-01-24T15:40:26.879Z,63.03
2019-01-24T15:42:56.108Z,62.83
2019-01-24T15:45:25.899Z,64.77
2019-01-24T15:47:55.329Z,57.00
2019-01-24T15:50:24.540Z,65.40
2019-01-24T15:52:53.869Z,65.77
2019-01-24T15:55:23.105Z,70.57
2019-01-24T15:57:52.326Z,65.03
2019-01-24T16:00:23.998Z,61.53
2019-01-24T16:02:53.297Z,63.77
2019-01-24T16:05:22.706Z,61.30
2019-01-24T16:07:51.927Z,64.83
2019-01-24T16:10:40.301Z,65.53
2019-01-24T16:13:09.580Z,63.70
2019-01-24T16:15:39.062Z,68.37
2019-01-24T16:18:11.736Z,68.03
2019-01-24T16:20:41.092Z,70.50
2019-01-24T16:23:10.364Z,69.47
2019-01-24T16:25:39.860Z,71.60
2019-01-24T16:28:09.176Z,62.17
2019-01-24T16:30:39.115Z,69.33
2019-01-24T16:33:09.492Z,69.83
2019-01-24T16:35:39.974Z,68.07
2019-01-24T16:38:09.922Z,65.10
2019-01-24T16:40:39.271Z,64.07
2019-01-24T16:43:08.738Z,62.97
2019-01-24T16:45:38.038Z,62.67
2019-01-24T16:48:07.530Z,69.10
2019-01-24T16:50:36.992Z,68.17
2019-01-24T16:53:06.337Z,62.93
2019-01-24T16:55:35.859Z,63.90
2019-01-24T16:58:06.234Z,70.27
2019-01-24T17:00:42.189Z,66.50
2019-01-24T17:03:11.527Z,66.60
2019-01-24T17:05:41.226Z,67.33
2019-01-24T17:08:16.472Z,70.30
2019-01-24T17:10:41.960Z,69.37
2019-01-24T17:13:11.411Z,74.93
2019-01-24T17:15:42.193Z,80.87
2019-01-24T17:18:11.926Z,81.33
2019-01-24T17:21:00.357Z,77.33
2019-01-24T17:23:29.794Z,70.67
2019-01-24T17:26:00.182Z,76.70
2019-01-24T17:28:30.087Z,67.03
2019-01-24T17:31:00.056Z,66.80
2019-01-24T17:33:29.607Z,63.77
2019-01-24T17:35:59.024Z,66.50
2019-01-24T17:38:30.033Z,70.80
2019-01-24T17:41:00.414Z,74.13
2019-01-24T17:43:29.767Z,76.87
2019-01-24T17:45:59.199Z,85.37
2019-01-24T17:48:28.977Z,82.63
2019-01-24T17:50:58.965Z,81.27
2019-01-24T17:53:28.880Z,73.03
2019-01-24T17:55:58.221Z,84.33
2019-01-24T17:58:29.583Z,97.60
2019-01-24T18:01:01.815Z,97.93
2019-01-24T18:03:32.949Z,88.97
2019-01-24T18:06:03.866Z,91.80
2019-01-24T18:08:33.154Z,81.90
2019-01-24T18:11:02.532Z,83.60
2019-01-24T18:13:32.224Z,81.47
2019-01-24T18:16:12.539Z,73.67
2019-01-24T18:18:41.920Z,80.50
2019-01-24T18:21:12.207Z,79.57
2019-01-24T18:23:42.446Z,86.60
2019-01-24T18:26:11.910Z,77.90
2019-01-24T18:28:41.499Z,75.57
2019-01-24T18:31:11.202Z,72.13
2019-01-24T18:33:40.590Z,68.37
2019-01-24T18:36:10.856Z,70.60
2019-01-24T18:38:41.288Z,70.83
2019-01-24T18:41:12.835Z,74.03
2019-01-24T18:43:43.371Z,67.37
2019-01-24T18:46:13.518Z,74.77
2019-01-24T18:48:43.403Z,71.90
2019-01-24T18:51:13.758Z,71.20
2019-01-24T18:53:44.940Z,68.73
2019-01-24T18:56:22.084Z,73.17
2019-01-24T18:58:51.498Z,83.27
2019-01-24T19:01:22.198Z,76.17
2019-01-24T19:03:54.042Z,73.43
2019-01-24T19:06:23.929Z,79.30
2019-01-24T19:08:53.585Z,73.93
2019-01-24T19:11:23.879Z,79.00
2019-01-24T19:13:53.262Z,78.80
2019-01-24T19:16:23.728Z,79.43
2019-01-24T19:18:52.976Z,75.20
2019-01-24T19:21:22.678Z,79.67
2019-01-24T19:23:52.387Z,80.87
2019-01-24T19:26:22.473Z,80.07
2019-01-24T19:28:53.130Z,87.83
2019-01-24T19:31:22.855Z,85.93
2019-01-24T19:33:52.553Z,82.97
2019-01-24T19:36:23.193Z,85.17
2019-01-24T19:38:53.157Z,95.63
2019-01-24T19:41:25.811Z,101.33
2019-01-24T19:43:55.951Z,78.77
2019-01-24T19:46:26.065Z,82.27
2019-01-24T19:48:55.424Z,80.00
2019-01-24T19:51:27.442Z,80.57
2019-01-24T19:53:57.417Z,82.43
2019-01-24T19:56:28.666Z,84.57
2019-01-24T19:58:59.229Z,82.00
2019-01-24T20:01:32.223Z,86.33
2019-01-24T20:04:03.990Z,90.70
2019-01-24T20:06:33.721Z,84.90
2019-01-24T20:09:08.903Z,76.57
2019-01-24T20:11:38.900Z,71.97
2019-01-24T20:14:08.506Z,79.43
2019-01-24T20:16:38.574Z,71.10
2019-01-24T20:19:08.573Z,73.50
2019-01-24T20:21:40.070Z,70.80
2019-01-24T20:24:11.122Z,69.53
2019-01-24T20:26:40.992Z,72.27
2019-01-24T20:29:13.321Z,79.47
2019-01-24T20:31:44.056Z,76.40
2019-01-24T20:34:13.623Z,78.37
2019-01-24T20:36:43.683Z,76.47
2019-01-24T20:39:14.514Z,72.03
2019-01-24T20:41:45.249Z,80.40
2019-01-24T20:44:14.724Z,73.97
2019-01-24T20:46:44.731Z,85.67
2019-01-24T20:49:15.146Z,80.73
2019-01-24T20:51:44.609Z,83.53
2019-01-24T20:54:14.108Z,80.43
2019-01-24T20:56:44.662Z,74.20
2019-01-24T20:59:15.360Z,76.17
2019-01-24T21:01:44.800Z,78.67
2019-01-24T21:04:15.123Z,85.03
2019-01-24T21:06:45.637Z,77.23
2019-01-24T21:09:15.129Z,72.00
2019-01-24T21:11:46.298Z,80.13
2019-01-24T21:14:16.456Z,81.00
2019-01-24T21:16:47.127Z,71.83
2019-01-24T21:19:16.522Z,77.07
2019-01-24T21:21:46.269Z,74.57
2019-01-24T21:24:15.999Z,76.77
2019-01-24T21:26:46.532Z,73.37
2019-01-24T21:29:15.957Z,89.37
2019-01-24T21:31:45.413Z,101.37
2019-01-24T21:34:14.888Z,95.13
2019-01-24T21:36:44.647Z,106.47
2019-01-24T21:39:14.613Z,87.60
2019-01-24T21:41:44.015Z,90.57
2019-01-24T21:44:14.286Z,81.03
2019-01-24T21:46:44.260Z,78.47
2019-01-24T21:49:14.091Z,68.73
2019-01-24T21:51:43.456Z,72.47
2019-01-24T21:54:12.792Z,75.53
2019-01-24T21:56:42.146Z,72.90
2019-01-24T21:59:11.498Z,72.53
2019-01-24T22:01:40.767Z,74.77
2019-01-24T22:04:10.815Z,74.60
2019-01-24T22:06:40.272Z,72.83
2019-01-24T22:09:10.059Z,72.47
2019-01-24T22:11:39.390Z,71.60
2019-01-24T22:14:08.746Z,76.13
2019-01-24T22:16:38.342Z,72.70
2019-01-24T22:19:07.775Z,63.97
2019-01-24T22:21:37.068Z,71.43
2019-01-24T22:24:06.499Z,68.53
2019-01-24T22:26:35.960Z,69.37
2019-01-24T22:29:05.960Z,65.53
2019-01-24T22:31:35.208Z,62.00
2019-01-24T22:34:04.532Z,62.13
2019-01-24T22:36:33.825Z,66.37
2019-01-24T22:39:03.512Z,64.60
2019-01-24T22:41:32.732Z,78.17
2019-01-24T22:44:01.934Z,71.30
2019-01-24T22:46:31.180Z,77.17
2019-01-24T22:49:00.380Z,80.33
2019-01-24T22:51:29.578Z,78.33
2019-01-24T22:53:59.000Z,93.00
2019-01-24T22:56:35.211Z,79.00
2019-01-24T22:58:59.144Z,77.57
2019-01-24T23:01:57.591Z,76.63
2019-01-24T23:04:27.016Z,77.83
2019-01-24T23:06:56.192Z,74.80
2019-01-24T23:09:25.835Z,82.43
2019-01-24T23:11:55.116Z,73.53
2019-01-24T23:14:24.338Z,69.83
2019-01-24T23:16:53.540Z,75.40
2019-01-24T23:19:22.946Z,77.90
2019-01-24T23:21:52.139Z,80.60
2019-01-24T23:24:21.341Z,87.10
2019-01-24T23:26:50.543Z,74.83
2019-01-24T23:29:19.816Z,75.10
2019-01-24T23:31:49.032Z,72.73
2019-01-24T23:34:18.195Z,76.40
2019-01-24T23:36:47.394Z,83.40
2019-01-24T23:39:16.772Z,84.10
2019-01-24T23:41:45.956Z,77.60
2019-01-24T23:44:15.861Z,75.10
2019-01-24T23:46:45.052Z,79.97
2019-01-24T23:49:14.268Z,71.67
2019-01-24T23:51:43.541Z,75.67
2019-01-24T23:54:12.740Z,77.63
2019-01-24T23:56:42.058Z,74.23
2019-01-24T23:59:11.458Z,73.17
